Ter Streep — ORDJ — position and weather

sailwx.info

Track history (hours):
 
Tides and Currents Weather Stations Pressure Air Temp Water Temp Dewpoint Dewpoint Depression Visibility Wind Speed Wind Dir Waves Ship Positions

Oceanographic research ship Ter Streep (Belgium)

Detailed information on ship capabilities available from University of Delaware's Ocean Information Center.

Last reported at 2017-Sep-21 14:10 UTC. Time now 2017-Sep-24 07:01 UTC.
Position N 51°14' E 002°56'.

Length 50 m; draft 3.7 m.

Type: Ship. MMSI: 205112000.

Date/timePositionNaut miles runAvg speedWind from/ knotsBaromVisibWave heightAir tempDewpointWater temp
2017-Sep-21 14:10N 51°14' E 002°56'1 3.2
2017-Sep-21 13:59N 51°14' E 002°55'510.4
2017-Sep-21 13:30N 51°18' E 002°51'612.1
2017-Sep-21 13:00N 51°22' E 002°43'611.8
2017-Sep-21 12:28N 51°27' E 002°37'5 2.2
2017-Sep-21 10:10N 51°32' E 002°36'3 1.8
2017-Sep-21 08:29N 51°29' E 002°34'3 6.0
2017-Sep-21 08:00N 51°27' E 002°37'612.1
2017-Sep-21 07:30N 51°23' E 002°44'612.5
2017-Sep-21 07:00N 51°18' E 002°51'510.8
2017-Sep-21 06:30N 51°14' E 002°56'0 0.4
2017-Sep-21 05:59N 51°14' E 002°56'4 0.2
2017-Sep-20 14:00N 51°17' E 002°53'612.1
2017-Sep-20 13:29N 51°21' E 002°45'4 7.8
2017-Sep-20 12:59N 51°24' E 002°42'612.1
2017-Sep-20 12:29N 51°28' E 002°35'1 0.4
2017-Sep-20 09:45N 51°29' E 002°33'7 3.2
2017-Sep-20 07:39N 51°24' E 002°42'311.9
2017-Sep-20 07:24N 51°22' E 002°45'512.0
2017-Sep-20 06:58N 51°19' E 002°51'511.3
2017-Sep-20 06:30N 51°14' E 002°55'1 1.6
2017-Sep-20 05:59N 51°14' E 002°56'0 0.0
2017-Sep-20 05:23N 51°14' E 002°56'0 0.0
2017-Sep-20 05:00N 51°14' E 002°56'0 0.0
2017-Sep-20 04:29N 51°14' E 002°56'0 0.0
2017-Sep-20 04:00N 51°14' E 002°56'0 0.0
2017-Sep-20 03:30N 51°14' E 002°56'0 0.0
2017-Sep-20 03:00N 51°14' E 002°56'0 0.0
2017-Sep-20 02:30N 51°14' E 002°56'0 0.0
2017-Sep-20 01:59N 51°14' E 002°56'0 0.0
2017-Sep-20 01:29N 51°14' E 002°56'0 0.0
2017-Sep-20 00:51N 51°14' E 002°56'0 0.0
2017-Sep-20 00:29N 51°14' E 002°56'0 0.0
2017-Sep-19 23:56N 51°14' E 002°56'0 0.0
2017-Sep-19 23:29N 51°14' E 002°56'0 0.0
2017-Sep-19 22:57N 51°14' E 002°56'0 0.0
2017-Sep-19 22:30N 51°14' E 002°56'0 0.0
2017-Sep-19 22:00N 51°14' E 002°56'0 0.0
2017-Sep-19 21:30N 51°14' E 002°56'0 0.0
2017-Sep-19 21:00N 51°14' E 002°56'0 0.0
2017-Sep-19 20:30N 51°14' E 002°56'0 0.0
2017-Sep-19 20:00N 51°14' E 002°56'0 0.0
2017-Sep-19 19:30N 51°14' E 002°56'0 0.0
2017-Sep-19 19:00N 51°14' E 002°56'0 0.0
2017-Sep-19 18:30N 51°14' E 002°56'0 0.0
2017-Sep-19 17:58N 51°14' E 002°56'0 0.0
2017-Sep-19 17:30N 51°14' E 002°56'0 0.0
2017-Sep-19 17:00N 51°14' E 002°56'0 0.0
2017-Sep-19 16:30N 51°14' E 002°56'0 0.0
2017-Sep-19 16:00N 51°14' E 002°56'0 0.0
2017-Sep-19 15:30N 51°14' E 002°56'0 0.0
2017-Sep-19 15:00N 51°14' E 002°56'0 0.0
2017-Sep-19 14:30N 51°14' E 002°56'0 0.0
2017-Sep-19 14:00N 51°14' E 002°56'0 0.0
2017-Sep-19 13:29N 51°14' E 002°56'0 0.0
2017-Sep-19 13:00N 51°14' E 002°56'0 0.0
2017-Sep-19 07:09N 51°14' E 002°56'0 1.2
2017-Sep-19 06:50N 51°14' E 002°56'0 0.7
2017-Sep-19 06:30N 51°14' E 002°55'0 0.0
2017-Sep-18 13:22N 51°14' E 002°55'3 7.7
2017-Sep-18 12:58N 51°17' E 002°53'4 7.7
2017-Sep-18 12:30N 51°19' E 002°58'4 6.9
2017-Sep-18 12:00N 51°17' E 002°53'4 7.0
2017-Sep-18 11:27N 51°19' E 002°59'4 7.4
2017-Sep-18 10:56N 51°17' E 002°53'  
2017-Sep-12 06:53N 51°14' E 002°56'0 0.0
2017-Sep-12 06:30N 51°14' E 002°56'0 0.0
2017-Sep-12 05:56N 51°14' E 002°56'0 0.0
2017-Sep-12 05:28N 51°14' E 002°56'  
Track history (hours):
 
Tides and Currents Weather Stations Pressure Air Temp Water Temp Dewpoint Dewpoint Depression Visibility Wind Speed Wind Dir Waves Ship Positions

Oceanographic research ship Ter Streep (Belgium)

Detailed information on ship capabilities available from University of Delaware's Ocean Information Center.

Last reported at 2017-Sep-21 14:10 UTC. Time now 2017-Sep-24 07:01 UTC.
Position N 51°14' E 002°56'.

Length 50 m; draft 3.7 m.

Type: Ship. MMSI: 205112000.

Date/timePositionNaut miles runAvg speedWind from/ knotsBaromVisibWave heightAir tempDewpointWater temp
2017-Sep-21 14:10N 51°14' E 002°56'1 3.2
2017-Sep-21 13:59N 51°14' E 002°55'510.4
2017-Sep-21 13:30N 51°18' E 002°51'612.1
2017-Sep-21 13:00N 51°22' E 002°43'611.8
2017-Sep-21 12:28N 51°27' E 002°37'5 2.2
2017-Sep-21 10:10N 51°32' E 002°36'3 1.8
2017-Sep-21 08:29N 51°29' E 002°34'3 6.0
2017-Sep-21 08:00N 51°27' E 002°37'612.1
2017-Sep-21 07:30N 51°23' E 002°44'612.5
2017-Sep-21 07:00N 51°18' E 002°51'510.8
2017-Sep-21 06:30N 51°14' E 002°56'0 0.4
2017-Sep-21 05:59N 51°14' E 002°56'4 0.2
2017-Sep-20 14:00N 51°17' E 002°53'612.1
2017-Sep-20 13:29N 51°21' E 002°45'4 7.8
2017-Sep-20 12:59N 51°24' E 002°42'612.1
2017-Sep-20 12:29N 51°28' E 002°35'1 0.4
2017-Sep-20 09:45N 51°29' E 002°33'7 3.2
2017-Sep-20 07:39N 51°24' E 002°42'311.9
2017-Sep-20 07:24N 51°22' E 002°45'512.0
2017-Sep-20 06:58N 51°19' E 002°51'511.3
2017-Sep-20 06:30N 51°14' E 002°55'1 1.6
2017-Sep-20 05:59N 51°14' E 002°56'0 0.0
2017-Sep-20 05:23N 51°14' E 002°56'0 0.0
2017-Sep-20 05:00N 51°14' E 002°56'0 0.0
2017-Sep-20 04:29N 51°14' E 002°56'0 0.0
2017-Sep-20 04:00N 51°14' E 002°56'0 0.0
2017-Sep-20 03:30N 51°14' E 002°56'0 0.0
2017-Sep-20 03:00N 51°14' E 002°56'0 0.0
2017-Sep-20 02:30N 51°14' E 002°56'0 0.0
2017-Sep-20 01:59N 51°14' E 002°56'0 0.0
2017-Sep-20 01:29N 51°14' E 002°56'0 0.0
2017-Sep-20 00:51N 51°14' E 002°56'0 0.0
2017-Sep-20 00:29N 51°14' E 002°56'0 0.0
2017-Sep-19 23:56N 51°14' E 002°56'0 0.0
2017-Sep-19 23:29N 51°14' E 002°56'0 0.0
2017-Sep-19 22:57N 51°14' E 002°56'0 0.0
2017-Sep-19 22:30N 51°14' E 002°56'0 0.0
2017-Sep-19 22:00N 51°14' E 002°56'0 0.0
2017-Sep-19 21:30N 51°14' E 002°56'0 0.0
2017-Sep-19 21:00N 51°14' E 002°56'0 0.0
2017-Sep-19 20:30N 51°14' E 002°56'0 0.0
2017-Sep-19 20:00N 51°14' E 002°56'0 0.0
2017-Sep-19 19:30N 51°14' E 002°56'0 0.0
2017-Sep-19 19:00N 51°14' E 002°56'0 0.0
2017-Sep-19 18:30N 51°14' E 002°56'0 0.0
2017-Sep-19 17:58N 51°14' E 002°56'0 0.0
2017-Sep-19 17:30N 51°14' E 002°56'0 0.0
2017-Sep-19 17:00N 51°14' E 002°56'0 0.0
2017-Sep-19 16:30N 51°14' E 002°56'0 0.0
2017-Sep-19 16:00N 51°14' E 002°56'0 0.0
2017-Sep-19 15:30N 51°14' E 002°56'0 0.0
2017-Sep-19 15:00N 51°14' E 002°56'0 0.0
2017-Sep-19 14:30N 51°14' E 002°56'0 0.0
2017-Sep-19 14:00N 51°14' E 002°56'0 0.0
2017-Sep-19 13:29N 51°14' E 002°56'0 0.0
2017-Sep-19 13:00N 51°14' E 002°56'0 0.0
2017-Sep-19 07:09N 51°14' E 002°56'0 1.2
2017-Sep-19 06:50N 51°14' E 002°56'0 0.7
2017-Sep-19 06:30N 51°14' E 002°55'0 0.0
2017-Sep-18 13:22N 51°14' E 002°55'3 7.7
2017-Sep-18 12:58N 51°17' E 002°53'4 7.7
2017-Sep-18 12:30N 51°19' E 002°58'4 6.9
2017-Sep-18 12:00N 51°17' E 002°53'4 7.0
2017-Sep-18 11:27N 51°19' E 002°59'4 7.4
2017-Sep-18 10:56N 51°17' E 002°53'  
2017-Sep-12 06:53N 51°14' E 002°56'0 0.0
2017-Sep-12 06:30N 51°14' E 002°56'0 0.0
2017-Sep-12 05:56N 51°14' E 002°56'0 0.0
2017-Sep-12 05:28N 51°14' E 002°56'  

Dump ship's entire track history